aviador You're here:

KMIV Decoded Metar

MILLVILLE in NJ, USA
Report Time2018-04-22 13:54:00
UTC Time2018-04-22 14:12:40
Flight Rules vfr VFR
Wind090° at 06 kt
W.Decomp.*RWY 10: 6.0 kt HW 0.1 kt RCW
RWY 14: 4.7 kt HW 3.8 kt LCW
W.Rank090° ranks 26
Current wind is below 090° avg. (6.8)
Visibility9999 m
Phenomena:N/A
Clouds:N/A
Expected CloudBase > 7,600 ft AGL from Temp-Dew spread
CeilingNone
Temp13°C (ISA -2)
Dew Point-6°C (26% RH)
AAT8.1°C
QNH1030 hPa
Density Alt-659 ft
Elevation75 ft
Report Wrong Elevation
Raw Report
KMIV 221354Z AUTO 09006KT 10SM CLR 13/M06 A3043 RMK AO2 SLP304
T01281056=

Extra information for KMIV:More info

Metar Taf Metar & Taf Last 4 Metars F.Rules Stats Wind Profile Meteogram Temp Stats Airport Information Weather charts Add Link Nearby VenuesMetar ALERT Operation Metar Decoded Social comments

AIRNAV info for KMIV